Time;durP1;ratioP1;P1;durP2;ratioP2;P2;SDS_P1;SDS_P2;PMS_P1;PMS_P2;Temp;Humidity;BMP_temperature;BMP_pressure;BME280_temperature;BME280_humidity;BME280_pressure;Samples;Min_cycle;Max_cycle;Signal;HPM_P1;HPM_P2
2024/03/11 00:02:56;;;;;;;;;;;9.70;99.90;;;;;;8414248;28;19924;-71
2024/03/11 00:06:58;;;;;;;;;;;9.70;99.90;;;;;;8409775;28;19931;-71
2024/03/11 00:11:11;;;;;;;;;;;9.70;99.90;;;;;;8415639;28;19924;-71
2024/03/11 00:15:13;;;;;;;;;;;9.70;99.90;;;;;;8397378;28;20291;-71
2024/03/11 00:19:15;;;;;;;;;;;9.70;99.90;;;;;;8388613;28;19924;-71
2024/03/11 00:23:17;;;;;;;;;;;9.70;99.90;;;;;;8409984;28;20265;-71
2024/03/11 00:27:19;;;;;;;;;;;9.70;99.90;;;;;;8400201;28;20434;-71
2024/03/11 00:31:21;;;;;;;;;;;9.70;99.90;;;;;;8420234;28;19955;-71
2024/03/11 00:35:24;;;;;;;;;;;9.60;99.90;;;;;;8400381;28;19928;-71
2024/03/11 00:39:26;;;;;;;;;;;9.60;99.90;;;;;;8409879;28;19924;-71
2024/03/11 00:43:28;;;;;;;;;;;9.60;99.90;;;;;;8416547;28;19981;-71
2024/03/11 00:47:30;;;;;;;;;;;9.50;99.90;;;;;;8412684;28;19969;-71
2024/03/11 00:51:33;;;;;;;;;;;9.50;99.90;;;;;;8401119;28;19925;-71
2024/03/11 00:55:35;;;;;;;;;;;9.40;99.90;;;;;;8402821;28;20375;-71
2024/03/11 00:59:36;;;;;;;;;;;9.40;99.90;;;;;;8397517;28;19938;-71
2024/03/11 01:03:38;;;;;;;;;;;9.40;99.90;;;;;;8404022;28;20341;-71
2024/03/11 01:07:41;;;;;;;;;;;9.40;99.90;;;;;;8417419;28;19924;-71
2024/03/11 01:11:47;;;;;;;;;;;9.30;99.90;;;;;;8405399;28;19970;-71
2024/03/11 01:15:49;;;;;;;;;;;9.30;99.90;;;;;;8406419;28;19939;-71
2024/03/11 01:20:15;;;;;;;;;;;9.30;99.90;;;;;;8393473;28;19939;-71
2024/03/11 01:24:17;;;;;;;;;;;9.30;99.90;;;;;;8418859;28;19924;-71
2024/03/11 01:28:19;;;;;;;;;;;9.30;99.90;;;;;;8423747;28;20263;-71
2024/03/11 01:32:20;;;;;;;;;;;9.20;99.90;;;;;;8423770;28;19928;-71
2024/03/11 01:36:22;;;;;;;;;;;9.20;99.90;;;;;;8428543;28;19929;-71
2024/03/11 01:40:27;;;;;;;;;;;9.20;99.90;;;;;;8406609;28;19977;-71
2024/03/11 01:44:31;;;;;;;;;;;9.20;99.90;;;;;;8420026;28;20265;-71
2024/03/11 01:48:33;;;;;;;;;;;9.10;99.90;;;;;;8395651;28;20018;-70
2024/03/11 01:52:45;;;;;;;;;;;9.10;99.90;;;;;;8396635;28;19924;-71
2024/03/11 01:56:49;;;;;;;;;;;9.10;99.90;;;;;;8416652;28;19947;-71
2024/03/11 02:00:51;;;;;;;;;;;9.10;99.90;;;;;;8394761;28;19932;-71
2024/03/11 02:04:53;;;;;;;;;;;9.00;99.90;;;;;;8412816;28;20643;-71
2024/03/11 02:08:54;;;;;;;;;;;9.00;99.90;;;;;;8396858;28;19931;-71
2024/03/11 02:12:58;;;;;;;;;;;9.00;99.90;;;;;;8418211;28;20428;-71
2024/03/11 02:17:01;;;;;;;;;;;9.00;99.90;;;;;;8410664;28;19932;-71
2024/03/11 02:21:03;;;;;;;;;;;9.00;99.90;;;;;;8393310;28;19928;-71
2024/03/11 02:25:05;;;;;;;;;;;9.00;99.90;;;;;;8416190;28;19979;-71
2024/03/11 02:29:07;;;;;;;;;;;9.00;99.90;;;;;;8419032;28;21775;-71
2024/03/11 02:33:10;;;;;;;;;;;9.00;99.90;;;;;;8417918;28;19985;-71
2024/03/11 02:37:38;;;;;;;;;;;8.90;99.90;;;;;;8422391;28;19932;-71
2024/03/11 02:41:40;;;;;;;;;;;8.90;99.90;;;;;;8404214;28;19939;-71
2024/03/11 02:45:42;;;;;;;;;;;9.00;99.90;;;;;;8417216;28;19970;-70
2024/03/11 02:49:43;;;;;;;;;;;8.90;99.90;;;;;;8413988;28;20024;-71
2024/03/11 02:53:45;;;;;;;;;;;8.90;99.90;;;;;;8400046;28;20294;-71
2024/03/11 02:57:48;;;;;;;;;;;8.90;99.90;;;;;;8399828;28;19935;-71
2024/03/11 03:01:50;;;;;;;;;;;9.00;99.90;;;;;;8411170;28;19924;-71
2024/03/11 03:05:52;;;;;;;;;;;9.00;99.90;;;;;;8388775;28;19967;-71
2024/03/11 03:09:54;;;;;;;;;;;9.00;99.90;;;;;;8410550;28;19928;-71
2024/03/11 03:13:55;;;;;;;;;;;9.00;99.90;;;;;;8411691;28;20359;-71
2024/03/11 03:17:57;;;;;;;;;;;9.00;99.90;;;;;;8421370;28;20362;-71
2024/03/11 03:21:59;;;;;;;;;;;9.00;99.90;;;;;;8420234;28;19930;-71
2024/03/11 03:26:00;;;;;;;;;;;9.00;99.90;;;;;;8421409;28;19924;-71
2024/03/11 03:30:03;;;;;;;;;;;9.00;99.90;;;;;;8417944;28;20009;-71
2024/03/11 03:34:04;;;;;;;;;;;9.00;99.90;;;;;;8395606;28;19943;-71
2024/03/11 03:43:10;;;;;;;;;;;9.00;99.90;;;;;;8421090;28;20018;-71
2024/03/11 03:47:11;;;;;;;;;;;9.00;99.90;;;;;;8392570;28;20416;-71
2024/03/11 03:51:13;;;;;;;;;;;9.00;99.90;;;;;;8401090;28;19924;-71
2024/03/11 03:55:15;;;;;;;;;;;9.00;99.90;;;;;;8407573;28;19939;-71
2024/03/11 03:59:17;;;;;;;;;;;9.00;99.90;;;;;;8385183;28;20342;-71
2024/03/11 04:03:20;;;;;;;;;;;9.00;99.90;;;;;;8401573;28;19924;-71
2024/03/11 04:07:22;;;;;;;;;;;9.00;99.90;;;;;;8383776;28;20287;-71
2024/03/11 04:11:24;;;;;;;;;;;9.00;99.90;;;;;;8403777;28;19935;-71
2024/03/11 04:15:26;;;;;;;;;;;9.00;99.90;;;;;;8404281;28;19928;-70
2024/03/11 04:19:27;;;;;;;;;;;9.00;99.90;;;;;;8387771;28;19924;-71
2024/03/11 04:23:29;;;;;;;;;;;8.90;99.90;;;;;;8416629;28;19931;-71
2024/03/11 04:27:31;;;;;;;;;;;8.90;99.90;;;;;;8401423;28;20482;-71
2024/03/11 04:31:33;;;;;;;;;;;8.90;99.90;;;;;;8406359;28;19927;-71
2024/03/11 04:35:35;;;;;;;;;;;8.80;99.90;;;;;;8383430;28;19977;-71
2024/03/11 04:39:37;;;;;;;;;;;8.80;99.90;;;;;;8403226;28;20310;-70
2024/03/11 04:43:38;;;;;;;;;;;8.80;99.90;;;;;;8395708;28;19924;-70
2024/03/11 04:47:40;;;;;;;;;;;8.70;99.90;;;;;;8408873;28;19932;-71
2024/03/11 04:51:42;;;;;;;;;;;8.70;99.90;;;;;;8411348;28;19938;-71
2024/03/11 04:55:44;;;;;;;;;;;8.70;99.90;;;;;;8412075;28;20392;-70
2024/03/11 04:59:45;;;;;;;;;;;8.60;99.90;;;;;;8404500;28;19955;-71
2024/03/11 05:03:47;;;;;;;;;;;8.60;99.90;;;;;;8409965;28;19939;-70
2024/03/11 05:07:52;;;;;;;;;;;8.60;99.90;;;;;;8389330;28;20598;-71
2024/03/11 05:11:54;;;;;;;;;;;8.60;99.90;;;;;;8397916;28;19970;-71
2024/03/11 05:15:56;;;;;;;;;;;8.50;99.90;;;;;;8411496;28;19924;-71
2024/03/11 05:19:59;;;;;;;;;;;8.60;99.90;;;;;;8409188;28;20016;-70
2024/03/11 05:24:02;;;;;;;;;;;8.60;99.90;;;;;;8418853;28;19928;-71
2024/03/11 05:28:04;;;;;;;;;;;8.50;99.90;;;;;;8376948;28;20817;-70
2024/03/11 05:32:08;;;;;;;;;;;8.50;99.90;;;;;;8415107;28;19928;-70
2024/03/11 05:36:10;;;;;;;;;;;8.50;99.90;;;;;;8401913;28;20026;-71
2024/03/11 05:40:12;;;;;;;;;;;8.50;99.90;;;;;;8399216;28;19932;-70
2024/03/11 05:44:15;;;;;;;;;;;8.50;99.90;;;;;;8396323;28;19925;-71
2024/03/11 05:48:18;;;;;;;;;;;8.50;99.90;;;;;;8379227;28;20013;-71
2024/03/11 05:52:30;;;;;;;;;;;8.50;99.90;;;;;;8399066;28;19924;-71
2024/03/11 05:56:31;;;;;;;;;;;8.50;99.90;;;;;;8397148;28;19924;-71
2024/03/11 06:00:33;;;;;;;;;;;8.40;99.90;;;;;;8395026;28;20107;-71
2024/03/11 06:04:37;;;;;;;;;;;8.40;99.90;;;;;;8382801;28;19992;-70
2024/03/11 06:08:39;;;;;;;;;;;8.40;99.90;;;;;;8418552;28;19928;-71
2024/03/11 06:12:43;;;;;;;;;;;8.40;99.90;;;;;;8401554;28;19924;-70
2024/03/11 06:16:45;;;;;;;;;;;8.40;99.90;;;;;;8389324;28;20074;-71
2024/03/11 06:20:46;;;;;;;;;;;8.40;99.90;;;;;;8407804;28;20391;-71
2024/03/11 06:24:49;;;;;;;;;;;8.40;99.90;;;;;;8412795;28;19924;-71
2024/03/11 06:28:52;;;;;;;;;;;8.40;99.90;;;;;;8420372;28;19932;-71
2024/03/11 06:32:53;;;;;;;;;;;8.30;99.90;;;;;;8399237;28;19929;-71
2024/03/11 06:36:55;;;;;;;;;;;8.30;99.90;;;;;;8379046;28;19946;-71
2024/03/11 06:40:57;;;;;;;;;;;8.30;99.90;;;;;;8405939;28;19924;-71
2024/03/11 06:44:59;;;;;;;;;;;8.40;99.90;;;;;;8416490;28;19931;-71
2024/03/11 06:49:01;;;;;;;;;;;8.40;99.90;;;;;;8411577;28;20992;-71
2024/03/11 06:53:06;;;;;;;;;;;8.40;99.90;;;;;;8403256;28;19985;-72
2024/03/11 06:57:10;;;;;;;;;;;8.40;99.90;;;;;;8393315;28;19940;-71
2024/03/11 07:01:11;;;;;;;;;;;8.40;99.90;;;;;;8411982;28;19975;-70
2024/03/11 07:05:14;;;;;;;;;;;8.40;99.90;;;;;;8421467;28;20447;-71
2024/03/11 07:09:15;;;;;;;;;;;8.50;99.90;;;;;;8396853;28;20362;-70
2024/03/11 07:13:17;;;;;;;;;;;8.50;99.90;;;;;;8418428;28;20264;-71
2024/03/11 07:17:20;;;;;;;;;;;8.50;99.90;;;;;;8412271;28;19928;-71
2024/03/11 07:21:27;;;;;;;;;;;8.50;99.90;;;;;;8404197;28;19932;-71
2024/03/11 07:25:34;;;;;;;;;;;8.50;99.90;;;;;;8421607;28;19924;-71
2024/03/11 07:29:36;;;;;;;;;;;8.50;99.90;;;;;;8419492;28;19924;-70
2024/03/11 07:33:39;;;;;;;;;;;8.50;99.90;;;;;;8405761;28;19924;-71
2024/03/11 07:37:42;;;;;;;;;;;8.60;99.90;;;;;;8414516;28;20395;-70
2024/03/11 07:41:45;;;;;;;;;;;8.60;99.90;;;;;;8413163;28;19959;-70
2024/03/11 07:45:47;;;;;;;;;;;8.60;99.90;;;;;;8420267;28;19931;-70
2024/03/11 07:49:49;;;;;;;;;;;8.60;99.90;;;;;;8398483;28;19958;-70
2024/03/11 07:53:51;;;;;;;;;;;8.60;99.90;;;;;;8414606;28;20026;-71
2024/03/11 07:57:52;;;;;;;;;;;8.60;99.90;;;;;;8409860;28;20329;-70
2024/03/11 08:01:54;;;;;;;;;;;8.60;99.90;;;;;;8405036;28;19924;-70
2024/03/11 08:05:58;;;;;;;;;;;8.60;99.90;;;;;;8424810;28;19928;-70
2024/03/11 08:10:01;;;;;;;;;;;8.60;99.90;;;;;;8410958;28;20371;-70
2024/03/11 08:14:04;;;;;;;;;;;8.60;99.90;;;;;;8414639;28;20276;-70
2024/03/11 08:18:06;;;;;;;;;;;8.60;99.90;;;;;;8403619;28;20019;-70
2024/03/11 08:22:07;;;;;;;;;;;8.70;99.90;;;;;;8413717;28;19925;-70
2024/03/11 08:26:11;;;;;;;;;;;8.70;99.90;;;;;;8412096;28;19924;-71
2024/03/11 08:30:15;;;;;;;;;;;8.70;99.90;;;;;;8415571;28;19928;-71
2024/03/11 08:34:18;;;;;;;;;;;8.70;99.90;;;;;;8396812;28;19963;-71
2024/03/11 08:38:20;;;;;;;;;;;8.70;99.90;;;;;;8402677;28;19924;-71
2024/03/11 08:42:21;;;;;;;;;;;8.70;99.90;;;;;;8420259;28;19924;-70
2024/03/11 08:46:23;;;;;;;;;;;8.70;99.90;;;;;;8400939;28;20310;-70
2024/03/11 08:50:25;;;;;;;;;;;8.70;99.90;;;;;;8422501;28;19924;-71
2024/03/11 08:54:28;;;;;;;;;;;8.70;99.90;;;;;;8412295;28;19967;-71
2024/03/11 08:58:30;;;;;;;;;;;8.70;99.90;;;;;;8396253;28;19924;-71
2024/03/11 09:02:32;;;;;;;;;;;8.70;99.90;;;;;;8424178;28;19931;-70
2024/03/11 09:06:33;;;;;;;;;;;8.70;99.90;;;;;;8419239;28;19924;-70
2024/03/11 09:10:35;;;;;;;;;;;8.70;99.90;;;;;;8417676;28;19932;-71
2024/03/11 09:14:37;;;;;;;;;;;8.70;99.90;;;;;;8394061;28;19931;-70
2024/03/11 09:18:39;;;;;;;;;;;8.80;99.90;;;;;;8405611;28;19931;-70
2024/03/11 09:22:42;;;;;;;;;;;8.80;99.90;;;;;;8418152;28;19947;-70
2024/03/11 09:26:44;;;;;;;;;;;8.80;99.90;;;;;;8408938;28;19968;-70
2024/03/11 09:30:46;;;;;;;;;;;8.80;99.90;;;;;;8405598;28;19924;-71
2024/03/11 09:34:48;;;;;;;;;;;8.90;99.90;;;;;;8395729;28;20398;-70
2024/03/11 09:38:50;;;;;;;;;;;8.90;99.90;;;;;;8402660;28;20264;-70
2024/03/11 09:42:55;;;;;;;;;;;8.90;99.90;;;;;;8427354;28;19924;-71
2024/03/11 09:47:00;;;;;;;;;;;8.90;99.90;;;;;;8420776;28;19925;-70
2024/03/11 09:51:02;;;;;;;;;;;8.90;99.90;;;;;;8402597;28;19934;-71
2024/03/11 09:55:05;;;;;;;;;;;8.90;99.90;;;;;;8406048;28;19934;-70
2024/03/11 09:59:09;;;;;;;;;;;8.90;99.90;;;;;;8404779;28;20435;-71
2024/03/11 10:03:13;;;;;;;;;;;8.90;99.90;;;;;;8384032;28;19925;-71
2024/03/11 10:07:15;;;;;;;;;;;8.90;99.90;;;;;;8407173;28;19933;-70
2024/03/11 10:11:20;;;;;;;;;;;9.00;99.90;;;;;;8391179;28;19990;-70
2024/03/11 10:15:29;;;;;;;;;;;9.00;99.90;;;;;;8402404;28;20357;-70
2024/03/11 10:19:43;;;;;;;;;;;9.00;99.90;;;;;;8387202;28;19932;-71
2024/03/11 10:23:48;;;;;;;;;;;9.00;99.90;;;;;;8383799;28;19997;-71
2024/03/11 10:27:50;;;;;;;;;;;9.00;99.90;;;;;;8382474;28;20019;-70
2024/03/11 10:31:52;;;;;;;;;;;9.00;99.90;;;;;;8388067;28;19924;-70
2024/03/11 10:36:06;;;;;;;;;;;9.00;99.90;;;;;;8390237;28;19928;-71
2024/03/11 10:40:14;;;;;;;;;;;9.00;99.90;;;;;;8386460;28;19936;-70
2024/03/11 10:44:18;;;;;;;;;;;9.00;99.90;;;;;;8390144;28;19936;-70
2024/03/11 10:48:25;;;;;;;;;;;9.10;99.90;;;;;;8387175;28;19935;-71
2024/03/11 10:52:31;;;;;;;;;;;9.10;99.90;;;;;;8387360;28;19946;-71
2024/03/11 10:56:34;;;;;;;;;;;9.10;99.90;;;;;;8385291;28;20263;-71
2024/03/11 11:00:36;;;;;;;;;;;9.00;99.90;;;;;;8391481;28;19979;-70
2024/03/11 11:04:38;;;;;;;;;;;9.00;99.90;;;;;;8392373;28;19964;-71
2024/03/11 11:08:42;;;;;;;;;;;9.00;99.90;;;;;;8388879;28;19924;-71
2024/03/11 11:12:44;;;;;;;;;;;9.00;99.90;;;;;;8371383;28;19966;-71
2024/03/11 11:16:49;;;;;;;;;;;9.00;99.90;;;;;;8378713;28;19947;-71
2024/03/11 11:20:52;;;;;;;;;;;8.90;99.90;;;;;;8387044;28;19929;-70
2024/03/11 11:24:54;;;;;;;;;;;8.90;99.90;;;;;;8382267;28;19959;-71
2024/03/11 11:29:02;;;;;;;;;;;8.80;99.90;;;;;;8399176;28;19978;-71
2024/03/11 11:33:04;;;;;;;;;;;8.80;99.90;;;;;;8385972;28;19951;-70
2024/03/11 11:37:07;;;;;;;;;;;8.80;99.90;;;;;;8382790;28;19929;-70
2024/03/11 11:41:34;;;;;;;;;;;8.80;99.90;;;;;;8386402;28;19974;-71
2024/03/11 11:45:45;;;;;;;;;;;8.80;99.90;;;;;;8398850;28;20461;-70
2024/03/11 11:49:48;;;;;;;;;;;8.80;99.90;;;;;;8384497;28;20360;-70
2024/03/11 11:53:50;;;;;;;;;;;8.80;99.90;;;;;;8386200;28;19924;-70
2024/03/11 11:58:02;;;;;;;;;;;8.80;99.90;;;;;;8381515;28;20493;-71
2024/03/11 12:02:05;;;;;;;;;;;8.80;99.90;;;;;;8368782;28;19929;-70
2024/03/11 12:06:20;;;;;;;;;;;8.80;99.90;;;;;;8385514;28;19924;-70
2024/03/11 12:10:23;;;;;;;;;;;8.80;99.90;;;;;;8383308;28;19932;-70
2024/03/11 12:14:25;;;;;;;;;;;8.80;99.90;;;;;;8383073;28;19928;-71
2024/03/11 12:18:27;;;;;;;;;;;8.80;99.90;;;;;;8379106;28;20356;-70
2024/03/11 12:22:29;;;;;;;;;;;8.90;99.90;;;;;;8385811;28;19955;-70
2024/03/11 12:26:34;;;;;;;;;;;8.90;99.90;;;;;;8382209;28;19924;-70
2024/03/11 12:30:37;;;;;;;;;;;8.80;99.90;;;;;;8385056;28;19932;-71
2024/03/11 12:34:40;;;;;;;;;;;8.90;99.90;;;;;;8383353;28;19932;-70
2024/03/11 12:38:42;;;;;;;;;;;8.90;99.90;;;;;;8385989;28;19982;-71
2024/03/11 12:42:49;;;;;;;;;;;8.90;99.90;;;;;;8402725;28;19931;-71
2024/03/11 12:46:55;;;;;;;;;;;8.90;99.90;;;;;;8389608;28;19960;-71
2024/03/11 12:50:58;;;;;;;;;;;8.90;99.90;;;;;;8365013;28;20055;-71
2024/03/11 12:55:07;;;;;;;;;;;8.90;99.90;;;;;;8385529;28;20300;-71
2024/03/11 12:59:13;;;;;;;;;;;8.90;99.90;;;;;;8385483;28;19925;-70
2024/03/11 13:03:18;;;;;;;;;;;8.90;99.90;;;;;;8384370;28;19939;-70
2024/03/11 13:07:23;;;;;;;;;;;8.90;99.90;;;;;;8402091;28;19924;-70
2024/03/11 13:11:24;;;;;;;;;;;8.90;99.90;;;;;;8389961;28;19924;-70
2024/03/11 13:15:30;;;;;;;;;;;8.90;99.90;;;;;;8372698;28;19947;-71
2024/03/11 13:19:32;;;;;;;;;;;8.90;99.90;;;;;;8385593;28;19932;-70
2024/03/11 13:23:34;;;;;;;;;;;8.90;99.90;;;;;;8399938;28;19924;-71
2024/03/11 13:27:35;;;;;;;;;;;8.90;99.90;;;;;;8384327;28;19925;-71
2024/03/11 13:31:37;;;;;;;;;;;8.90;99.90;;;;;;8384536;28;19924;-71
2024/03/11 13:35:40;;;;;;;;;;;8.90;99.90;;;;;;8386231;28;19939;-71
2024/03/11 13:39:44;;;;;;;;;;;8.90;99.90;;;;;;8384021;28;19928;-71
2024/03/11 13:43:46;;;;;;;;;;;8.90;99.90;;;;;;8388010;28;20291;-70
2024/03/11 13:47:49;;;;;;;;;;;8.90;99.90;;;;;;8382334;28;19928;-70
2024/03/11 13:51:51;;;;;;;;;;;8.90;99.90;;;;;;8403844;28;19947;-71
2024/03/11 13:55:52;;;;;;;;;;;8.80;99.90;;;;;;8382184;28;19978;-71
2024/03/11 13:59:54;;;;;;;;;;;8.90;99.90;;;;;;8368713;28;20685;-70
2024/03/11 14:03:56;;;;;;;;;;;8.80;99.90;;;;;;8388537;28;19924;-70
2024/03/11 14:07:57;;;;;;;;;;;8.80;99.90;;;;;;8382867;28;19934;-71
2024/03/11 14:11:59;;;;;;;;;;;8.80;99.90;;;;;;8375169;28;20637;-70
2024/03/11 14:16:01;;;;;;;;;;;8.80;99.90;;;;;;8364231;28;20458;-70
2024/03/11 14:20:05;;;;;;;;;;;8.80;99.90;;;;;;8380418;28;19939;-70
2024/03/11 14:24:09;;;;;;;;;;;8.80;99.90;;;;;;8395467;28;19989;-71
2024/03/11 14:28:12;;;;;;;;;;;8.80;99.90;;;;;;8395874;28;19928;-71
2024/03/11 14:32:14;;;;;;;;;;;8.90;99.90;;;;;;8397486;28;20383;-70
2024/03/11 14:36:17;;;;;;;;;;;8.90;99.90;;;;;;8400940;28;19928;-70
2024/03/11 14:40:31;;;;;;;;;;;8.90;99.90;;;;;;8377600;28;19940;-70
2024/03/11 14:44:36;;;;;;;;;;;8.90;99.90;;;;;;8390109;28;19933;-71
2024/03/11 14:48:46;;;;;;;;;;;8.90;99.90;;;;;;8406150;28;19928;-71
2024/03/11 14:52:49;;;;;;;;;;;8.80;99.90;;;;;;8388858;28;19936;-71
2024/03/11 14:56:53;;;;;;;;;;;8.80;99.90;;;;;;8409027;28;19932;-71
2024/03/11 15:00:57;;;;;;;;;;;8.80;99.90;;;;;;8386446;28;20766;-71
2024/03/11 15:04:59;;;;;;;;;;;8.80;99.90;;;;;;8392991;28;19977;-71
2024/03/11 15:09:01;;;;;;;;;;;8.80;99.90;;;;;;8388759;28;20406;-71
2024/03/11 15:13:03;;;;;;;;;;;8.70;99.90;;;;;;8390621;28;19928;-71
2024/03/11 15:17:06;;;;;;;;;;;8.70;99.90;;;;;;8390568;28;19930;-71
2024/03/11 15:21:09;;;;;;;;;;;8.70;99.90;;;;;;8391778;28;19935;-70
2024/03/11 15:25:11;;;;;;;;;;;8.70;99.90;;;;;;8381752;28;19924;-71
2024/03/11 15:29:13;;;;;;;;;;;8.70;99.90;;;;;;8389422;28;19935;-71
2024/03/11 15:33:17;;;;;;;;;;;8.70;99.90;;;;;;8390916;28;19982;-71
2024/03/11 15:37:19;;;;;;;;;;;8.60;99.90;;;;;;8387590;28;20008;-71
2024/03/11 15:41:23;;;;;;;;;;;8.60;99.90;;;;;;8390756;28;19940;-71
2024/03/11 15:45:31;;;;;;;;;;;8.60;99.90;;;;;;8387194;28;19928;-71
2024/03/11 15:49:33;;;;;;;;;;;8.70;99.90;;;;;;8403705;28;19928;-71
2024/03/11 15:53:34;;;;;;;;;;;8.70;99.90;;;;;;8386801;28;19932;-71
2024/03/11 15:57:39;;;;;;;;;;;8.70;99.90;;;;;;8390268;28;20452;-71
2024/03/11 16:01:40;;;;;;;;;;;8.70;99.90;;;;;;8404915;28;19972;-71
2024/03/11 16:05:44;;;;;;;;;;;8.60;99.90;;;;;;8390811;28;20322;-71
2024/03/11 16:14:06;;;;;;;;;;;8.60;99.90;;;;;;8385605;28;19925;-71
2024/03/11 16:18:12;;;;;;;;;;;8.60;99.90;;;;;;8390574;28;19962;-71
2024/03/11 16:22:15;;;;;;;;;;;8.60;99.90;;;;;;8389997;28;19928;-71
2024/03/11 16:26:20;;;;;;;;;;;8.60;99.90;;;;;;8380090;28;20294;-71
2024/03/11 16:30:25;;;;;;;;;;;8.60;99.90;;;;;;8379493;28;20366;-71
2024/03/11 16:34:27;;;;;;;;;;;8.60;99.90;;;;;;8377921;28;19993;-71
2024/03/11 16:38:30;;;;;;;;;;;8.60;99.90;;;;;;8401007;28;20658;-70
2024/03/11 16:42:32;;;;;;;;;;;8.60;99.90;;;;;;8387313;28;19932;-71
2024/03/11 16:46:34;;;;;;;;;;;8.60;99.90;;;;;;8368630;28;20383;-71
2024/03/11 16:50:37;;;;;;;;;;;8.50;99.90;;;;;;8387071;28;19924;-71
2024/03/11 16:54:38;;;;;;;;;;;8.50;99.90;;;;;;8383049;28;19924;-71
2024/03/11 16:58:41;;;;;;;;;;;8.50;99.90;;;;;;8369606;28;20023;-71
2024/03/11 17:02:43;;;;;;;;;;;8.50;99.90;;;;;;8405350;28;20235;-71
2024/03/11 17:06:45;;;;;;;;;;;8.50;99.90;;;;;;8385286;28;20396;-71
2024/03/11 17:10:49;;;;;;;;;;;8.50;99.90;;;;;;8383546;28;19932;-71
2024/03/11 17:14:52;;;;;;;;;;;8.50;99.90;;;;;;8392718;28;19971;-71
2024/03/11 17:18:55;;;;;;;;;;;8.40;99.90;;;;;;8389276;28;19993;-71
2024/03/11 17:22:57;;;;;;;;;;;8.40;99.90;;;;;;8400709;28;20015;-71
2024/03/11 17:26:59;;;;;;;;;;;8.30;99.90;;;;;;8401424;28;19925;-71
2024/03/11 17:31:02;;;;;;;;;;;8.30;99.90;;;;;;8390996;28;20330;-71
2024/03/11 17:35:05;;;;;;;;;;;8.30;99.90;;;;;;8394532;28;19924;-71
2024/03/11 17:39:07;;;;;;;;;;;8.30;99.90;;;;;;8389956;28;19929;-71
2024/03/11 17:43:09;;;;;;;;;;;8.30;99.90;;;;;;8387704;28;20015;-71
2024/03/11 17:47:11;;;;;;;;;;;8.20;99.90;;;;;;8386128;28;19924;-71
2024/03/11 17:51:14;;;;;;;;;;;8.20;99.90;;;;;;8386620;28;19932;-71
2024/03/11 17:55:16;;;;;;;;;;;8.20;99.90;;;;;;8367631;28;20638;-71
2024/03/11 17:59:20;;;;;;;;;;;8.20;99.90;;;;;;8399215;28;19928;-71
2024/03/11 18:03:22;;;;;;;;;;;8.20;99.90;;;;;;8386657;28;19925;-71
2024/03/11 18:07:23;;;;;;;;;;;8.20;99.90;;;;;;8390421;28;20461;-71
2024/03/11 18:11:25;;;;;;;;;;;8.20;99.90;;;;;;8386483;28;19990;-71
2024/03/11 18:15:28;;;;;;;;;;;8.20;99.90;;;;;;8388113;28;19990;-71
2024/03/11 18:19:30;;;;;;;;;;;8.20;99.90;;;;;;8393658;28;19929;-71
2024/03/11 18:23:32;;;;;;;;;;;8.20;99.90;;;;;;8385158;28;19925;-71
2024/03/11 18:27:34;;;;;;;;;;;8.20;99.90;;;;;;8394232;28;19928;-72
2024/03/11 18:31:36;;;;;;;;;;;8.20;99.90;;;;;;8393432;28;20313;-71
2024/03/11 18:35:41;;;;;;;;;;;8.20;99.90;;;;;;8404527;28;20363;-71
2024/03/11 18:39:43;;;;;;;;;;;8.20;99.90;;;;;;8392820;28;19934;-71
2024/03/11 18:43:45;;;;;;;;;;;8.20;99.90;;;;;;8374324;28;19978;-71
2024/03/11 18:47:47;;;;;;;;;;;8.20;99.90;;;;;;8391950;28;19936;-71
2024/03/11 18:51:51;;;;;;;;;;;8.20;99.90;;;;;;8390995;28;20338;-71
2024/03/11 18:55:53;;;;;;;;;;;8.30;99.90;;;;;;8393125;28;20007;-71
2024/03/11 18:59:54;;;;;;;;;;;8.30;99.90;;;;;;8389431;28;20299;-71
2024/03/11 19:03:56;;;;;;;;;;;8.30;99.90;;;;;;8406832;28;19925;-71
2024/03/11 19:07:58;;;;;;;;;;;8.30;99.90;;;;;;8371432;28;19929;-71
2024/03/11 19:12:01;;;;;;;;;;;8.30;99.90;;;;;;8394216;28;19928;-72
2024/03/11 19:16:04;;;;;;;;;;;8.30;99.90;;;;;;8401578;28;19951;-71
2024/03/11 19:20:08;;;;;;;;;;;8.30;99.90;;;;;;8401618;28;19971;-71
2024/03/11 19:29:14;;;;;;;;;;;8.30;99.90;;;;;;8392892;28;20027;-71
2024/03/11 19:33:16;;;;;;;;;;;8.30;99.90;;;;;;8390314;28;20285;-71
2024/03/11 19:37:36;;;;;;;;;;;8.30;99.90;;;;;;8391420;28;20287;-71
2024/03/11 19:41:58;;;;;;;;;;;8.30;99.90;;;;;;8391390;28;20368;-71
2024/03/11 19:46:18;;;;;;;;;;;8.30;99.90;;;;;;8390731;28;19931;-71
2024/03/11 19:50:39;;;;;;;;;;;8.30;99.90;;;;;;8390660;28;19928;-71
2024/03/11 19:54:59;;;;;;;;;;;8.30;99.90;;;;;;8396218;28;19928;-71
2024/03/11 19:59:15;;;;;;;;;;;8.30;99.90;;;;;;8398673;28;20280;-71
2024/03/11 20:03:36;;;;;;;;;;;8.30;99.90;;;;;;8392940;28;20375;-71
2024/03/11 20:07:50;;;;;;;;;;;8.30;99.90;;;;;;8390549;28;20235;-71
2024/03/11 20:12:11;;;;;;;;;;;8.30;99.90;;;;;;8391393;28;19932;-71
2024/03/11 20:16:19;;;;;;;;;;;8.30;99.90;;;;;;8389512;28;20394;-71
2024/03/11 20:20:24;;;;;;;;;;;8.30;99.90;;;;;;8371567;28;19928;-71
2024/03/11 20:24:41;;;;;;;;;;;8.30;99.90;;;;;;8398979;28;19933;-71
2024/03/11 20:28:42;;;;;;;;;;;8.30;99.90;;;;;;8397617;28;20407;-71
2024/03/11 20:33:03;;;;;;;;;;;8.30;99.90;;;;;;8376523;28;20134;-71
2024/03/11 20:37:05;;;;;;;;;;;8.30;99.90;;;;;;8389175;28;20074;-71
2024/03/11 20:41:07;;;;;;;;;;;8.30;99.90;;;;;;8383259;28;19944;-71
2024/03/11 20:45:09;;;;;;;;;;;8.20;99.90;;;;;;8380565;28;19939;-71
2024/03/11 20:54:14;;;;;;;;;;;8.20;99.90;;;;;;8390604;28;20387;-71
2024/03/11 20:58:16;;;;;;;;;;;8.20;99.90;;;;;;8400192;28;19935;-71
2024/03/11 21:02:18;;;;;;;;;;;8.20;99.90;;;;;;8383917;28;19935;-71
2024/03/11 21:06:20;;;;;;;;;;;8.20;99.90;;;;;;8373315;28;20369;-71
2024/03/11 21:10:23;;;;;;;;;;;8.20;99.90;;;;;;8368354;28;19928;-71
2024/03/11 21:14:26;;;;;;;;;;;8.20;99.90;;;;;;8376753;28;20357;-71
2024/03/11 21:18:30;;;;;;;;;;;8.20;99.90;;;;;;8392346;28;20284;-71
2024/03/11 21:22:35;;;;;;;;;;;8.20;99.90;;;;;;8385587;28;20011;-72
2024/03/11 21:26:37;;;;;;;;;;;8.20;99.90;;;;;;8382632;28;19968;-71
2024/03/11 21:30:41;;;;;;;;;;;8.20;99.90;;;;;;8388592;28;19924;-71
2024/03/11 21:34:43;;;;;;;;;;;8.20;99.90;;;;;;8371250;28;20011;-71
2024/03/11 21:38:45;;;;;;;;;;;8.20;99.90;;;;;;8386668;28;19924;-71
2024/03/11 21:42:49;;;;;;;;;;;8.30;99.90;;;;;;8394662;28;19939;-71
2024/03/11 21:46:50;;;;;;;;;;;8.30;99.90;;;;;;8395950;28;19932;-71
2024/03/11 21:50:52;;;;;;;;;;;8.30;99.90;;;;;;8394925;28;19949;-71
2024/03/11 21:59:35;;;;;;;;;;;8.30;99.90;;;;;;8393455;28;19931;-71
2024/03/11 22:03:36;;;;;;;;;;;8.30;99.90;;;;;;8419715;28;19931;-71
2024/03/11 22:07:43;;;;;;;;;;;8.30;99.90;;;;;;8428320;28;19973;-71
2024/03/11 22:11:45;;;;;;;;;;;8.30;99.90;;;;;;8421113;28;19938;-71
2024/03/11 22:15:47;;;;;;;;;;;8.30;99.90;;;;;;8423330;28;20344;-71
2024/03/11 22:19:49;;;;;;;;;;;8.40;99.90;;;;;;8425869;28;19932;-71
2024/03/11 22:23:51;;;;;;;;;;;8.40;99.90;;;;;;8408592;28;19924;-71
2024/03/11 22:27:52;;;;;;;;;;;8.40;99.90;;;;;;8409769;28;19947;-71
2024/03/11 22:31:55;;;;;;;;;;;8.40;99.90;;;;;;8425177;28;19981;-71
2024/03/11 22:35:57;;;;;;;;;;;8.40;99.90;;;;;;8425936;28;19924;-72
2024/03/11 22:39:58;;;;;;;;;;;8.30;99.90;;;;;;8426352;28;19935;-71
2024/03/11 22:44:01;;;;;;;;;;;8.30;99.90;;;;;;8423198;28;20030;-71
2024/03/11 22:48:03;;;;;;;;;;;8.30;99.90;;;;;;8409312;28;20004;-71
2024/03/11 22:52:05;;;;;;;;;;;8.30;99.90;;;;;;8424681;28;19928;-71
2024/03/11 22:56:07;;;;;;;;;;;8.30;99.90;;;;;;8424428;28;20445;-71
2024/03/11 23:04:41;;;;;;;;;;;8.40;99.90;;;;;;8407231;28;19927;-71
2024/03/11 23:08:43;;;;;;;;;;;8.40;99.90;;;;;;8408189;28;19928;-71
2024/03/11 23:12:45;;;;;;;;;;;8.40;99.90;;;;;;8423479;28;19932;-71
2024/03/11 23:16:47;;;;;;;;;;;8.40;99.90;;;;;;8404955;28;20390;-71
2024/03/11 23:20:48;;;;;;;;;;;8.40;99.90;;;;;;8424941;28;20286;-71
2024/03/11 23:24:52;;;;;;;;;;;8.40;99.90;;;;;;8409279;28;19924;-71
2024/03/11 23:28:54;;;;;;;;;;;8.40;99.90;;;;;;8411884;28;19928;-71
2024/03/11 23:32:56;;;;;;;;;;;8.30;99.90;;;;;;8417631;28;19931;-71
2024/03/11 23:36:59;;;;;;;;;;;8.30;99.90;;;;;;8402377;28;19924;-71
2024/03/11 23:41:02;;;;;;;;;;;8.30;99.90;;;;;;8425288;28;19924;-71
2024/03/11 23:45:22;;;;;;;;;;;8.30;99.90;;;;;;8385826;28;20310;-71
2024/03/11 23:49:24;;;;;;;;;;;8.30;99.90;;;;;;8408473;28;20291;-71
2024/03/11 23:53:26;;;;;;;;;;;8.20;99.90;;;;;;8424041;28;20379;-71
2024/03/11 23:57:28;;;;;;;;;;;8.20;99.90;;;;;;8424136;28;20325;-71
